sensor_id;sensor_type;location;lat;lon;timestamp;temperature;humidity
53645;DHT22;39547;45.554;12.068;2024-02-23T00:02:49;10.00;92.50
53645;DHT22;39547;45.554;12.068;2024-02-23T00:08:51;10.00;92.60
53645;DHT22;39547;45.554;12.068;2024-02-23T00:14:54;10.00;92.60
53645;DHT22;39547;45.554;12.068;2024-02-23T00:20:56;10.00;92.60
53645;DHT22;39547;45.554;12.068;2024-02-23T00:26:57;10.00;92.60
53645;DHT22;39547;45.554;12.068;2024-02-23T00:33:00;10.00;92.70
53645;DHT22;39547;45.554;12.068;2024-02-23T00:39:01;10.00;92.70
53645;DHT22;39547;45.554;12.068;2024-02-23T00:45:04;9.90;92.60
53645;DHT22;39547;45.554;12.068;2024-02-23T00:51:05;9.90;92.70
53645;DHT22;39547;45.554;12.068;2024-02-23T00:57:08;9.90;92.70
53645;DHT22;39547;45.554;12.068;2024-02-23T01:03:09;9.90;92.80
53645;DHT22;39547;45.554;12.068;2024-02-23T01:09:12;9.90;92.80
53645;DHT22;39547;45.554;12.068;2024-02-23T01:15:14;9.90;92.80
53645;DHT22;39547;45.554;12.068;2024-02-23T01:21:16;9.90;92.80
53645;DHT22;39547;45.554;12.068;2024-02-23T01:27:17;9.80;92.90
53645;DHT22;39547;45.554;12.068;2024-02-23T01:33:19;9.80;92.90
53645;DHT22;39547;45.554;12.068;2024-02-23T01:39:21;9.80;92.90
53645;DHT22;39547;45.554;12.068;2024-02-23T01:45:22;9.80;92.90
53645;DHT22;39547;45.554;12.068;2024-02-23T01:51:24;9.80;92.90
53645;DHT22;39547;45.554;12.068;2024-02-23T01:57:26;9.80;92.90
53645;DHT22;39547;45.554;12.068;2024-02-23T02:03:28;9.80;92.90
53645;DHT22;39547;45.554;12.068;2024-02-23T02:09:30;9.90;93.00
53645;DHT22;39547;45.554;12.068;2024-02-23T02:15:32;9.80;93.00
53645;DHT22;39547;45.554;12.068;2024-02-23T02:21:34;9.90;93.00
53645;DHT22;39547;45.554;12.068;2024-02-23T02:27:36;9.90;93.00
53645;DHT22;39547;45.554;12.068;2024-02-23T02:33:37;9.80;93.00
53645;DHT22;39547;45.554;12.068;2024-02-23T02:39:41;9.80;93.00
53645;DHT22;39547;45.554;12.068;2024-02-23T02:45:43;9.80;93.00
53645;DHT22;39547;45.554;12.068;2024-02-23T02:51:45;9.80;93.00
53645;DHT22;39547;45.554;12.068;2024-02-23T02:57:47;9.90;93.10
53645;DHT22;39547;45.554;12.068;2024-02-23T03:03:48;9.90;93.10
53645;DHT22;39547;45.554;12.068;2024-02-23T03:09:49;9.90;93.10
53645;DHT22;39547;45.554;12.068;2024-02-23T03:15:52;9.90;93.10
53645;DHT22;39547;45.554;12.068;2024-02-23T03:21:54;9.90;93.20
53645;DHT22;39547;45.554;12.068;2024-02-23T03:27:55;9.90;93.10
53645;DHT22;39547;45.554;12.068;2024-02-23T03:33:57;9.90;93.10
53645;DHT22;39547;45.554;12.068;2024-02-23T03:39:58;9.90;93.10
53645;DHT22;39547;45.554;12.068;2024-02-23T03:46:01;9.90;93.10
53645;DHT22;39547;45.554;12.068;2024-02-23T03:52:03;9.90;93.20
53645;DHT22;39547;45.554;12.068;2024-02-23T03:58:06;9.90;93.20
53645;DHT22;39547;45.554;12.068;2024-02-23T04:04:07;9.90;93.20
53645;DHT22;39547;45.554;12.068;2024-02-23T04:10:09;9.90;93.20
53645;DHT22;39547;45.554;12.068;2024-02-23T04:16:10;10.00;93.20
53645;DHT22;39547;45.554;12.068;2024-02-23T04:22:13;10.00;93.30
53645;DHT22;39547;45.554;12.068;2024-02-23T04:28:14;10.00;93.30
53645;DHT22;39547;45.554;12.068;2024-02-23T04:34:16;10.00;93.30
53645;DHT22;39547;45.554;12.068;2024-02-23T04:40:17;10.00;93.40
53645;DHT22;39547;45.554;12.068;2024-02-23T04:46:19;10.00;93.40
53645;DHT22;39547;45.554;12.068;2024-02-23T04:52:21;10.00;93.40
53645;DHT22;39547;45.554;12.068;2024-02-23T04:58:22;10.10;93.50
53645;DHT22;39547;45.554;12.068;2024-02-23T05:04:24;10.10;93.50
53645;DHT22;39547;45.554;12.068;2024-02-23T05:10:27;10.10;93.50
53645;DHT22;39547;45.554;12.068;2024-02-23T05:16:29;10.20;93.60
53645;DHT22;39547;45.554;12.068;2024-02-23T05:22:31;10.20;93.60
53645;DHT22;39547;45.554;12.068;2024-02-23T05:28:32;10.20;93.60
53645;DHT22;39547;45.554;12.068;2024-02-23T05:34:34;10.20;93.70
53645;DHT22;39547;45.554;12.068;2024-02-23T05:40:36;10.20;93.70
53645;DHT22;39547;45.554;12.068;2024-02-23T05:46:39;10.20;93.70
53645;DHT22;39547;45.554;12.068;2024-02-23T05:52:40;10.30;93.70
53645;DHT22;39547;45.554;12.068;2024-02-23T05:58:42;10.40;93.70
53645;DHT22;39547;45.554;12.068;2024-02-23T06:04:43;10.50;92.90
53645;DHT22;39547;45.554;12.068;2024-02-23T06:10:46;10.60;92.70
53645;DHT22;39547;45.554;12.068;2024-02-23T06:16:48;10.70;91.80
53645;DHT22;39547;45.554;12.068;2024-02-23T06:22:51;10.90;91.10
53645;DHT22;39547;45.554;12.068;2024-02-23T06:28:52;11.00;90.10
53645;DHT22;39547;45.554;12.068;2024-02-23T06:34:54;11.10;90.20
53645;DHT22;39547;45.554;12.068;2024-02-23T06:40:56;11.10;89.30
53645;DHT22;39547;45.554;12.068;2024-02-23T06:46:57;11.20;88.90
53645;DHT22;39547;45.554;12.068;2024-02-23T06:52:59;11.20;89.40
53645;DHT22;39547;45.554;12.068;2024-02-23T06:59:00;11.20;89.70
53645;DHT22;39547;45.554;12.068;2024-02-23T07:05:02;11.20;89.50
53645;DHT22;39547;45.554;12.068;2024-02-23T07:11:07;11.20;88.20
53645;DHT22;39547;45.554;12.068;2024-02-23T07:17:08;11.30;88.90
53645;DHT22;39547;45.554;12.068;2024-02-23T07:23:10;11.30;89.30
53645;DHT22;39547;45.554;12.068;2024-02-23T07:29:11;11.30;89.50
53645;DHT22;39547;45.554;12.068;2024-02-23T07:35:13;11.40;90.10
53645;DHT22;39547;45.554;12.068;2024-02-23T07:41:15;11.40;89.00
53645;DHT22;39547;45.554;12.068;2024-02-23T07:47:19;11.40;89.30
53645;DHT22;39547;45.554;12.068;2024-02-23T07:53:20;11.40;89.40
53645;DHT22;39547;45.554;12.068;2024-02-23T07:59:22;11.40;88.10
53645;DHT22;39547;45.554;12.068;2024-02-23T08:05:23;11.40;88.70
53645;DHT22;39547;45.554;12.068;2024-02-23T08:11:25;11.50;88.70
53645;DHT22;39547;45.554;12.068;2024-02-23T08:17:27;11.40;88.70
53645;DHT22;39547;45.554;12.068;2024-02-23T08:23:29;11.50;88.70
53645;DHT22;39547;45.554;12.068;2024-02-23T08:29:31;11.50;88.70
53645;DHT22;39547;45.554;12.068;2024-02-23T08:35:32;11.60;89.50
53645;DHT22;39547;45.554;12.068;2024-02-23T08:41:34;11.70;89.70
53645;DHT22;39547;45.554;12.068;2024-02-23T08:47:36;11.60;89.10
53645;DHT22;39547;45.554;12.068;2024-02-23T08:53:38;11.70;89.50
53645;DHT22;39547;45.554;12.068;2024-02-23T08:59:39;11.70;89.80
53645;DHT22;39547;45.554;12.068;2024-02-23T09:05:41;11.60;89.90
53645;DHT22;39547;45.554;12.068;2024-02-23T09:11:42;11.50;90.20
53645;DHT22;39547;45.554;12.068;2024-02-23T09:17:43;11.40;90.50
53645;DHT22;39547;45.554;12.068;2024-02-23T09:23:45;11.30;90.80
53645;DHT22;39547;45.554;12.068;2024-02-23T09:29:49;11.30;91.00
53645;DHT22;39547;45.554;12.068;2024-02-23T09:35:51;11.20;91.30
53645;DHT22;39547;45.554;12.068;2024-02-23T09:41:54;11.30;91.40
53645;DHT22;39547;45.554;12.068;2024-02-23T09:47:57;11.30;91.30
53645;DHT22;39547;45.554;12.068;2024-02-23T09:53:59;11.40;91.40
53645;DHT22;39547;45.554;12.068;2024-02-23T10:00:01;11.40;91.50
53645;DHT22;39547;45.554;12.068;2024-02-23T10:06:13;11.30;91.70
53645;DHT22;39547;45.554;12.068;2024-02-23T10:12:16;11.30;91.80
53645;DHT22;39547;45.554;12.068;2024-02-23T10:18:17;11.20;92.10
53645;DHT22;39547;45.554;12.068;2024-02-23T10:24:19;11.10;92.00
53645;DHT22;39547;45.554;12.068;2024-02-23T10:30:21;11.10;92.20
53645;DHT22;39547;45.554;12.068;2024-02-23T10:36:24;11.00;92.50
53645;DHT22;39547;45.554;12.068;2024-02-23T10:42:34;11.00;92.60
53645;DHT22;39547;45.554;12.068;2024-02-23T10:48:41;11.00;92.50
53645;DHT22;39547;45.554;12.068;2024-02-23T10:54:46;11.00;92.70
53645;DHT22;39547;45.554;12.068;2024-02-23T11:00:48;11.00;93.00
53645;DHT22;39547;45.554;12.068;2024-02-23T11:06:51;11.00;93.00
53645;DHT22;39547;45.554;12.068;2024-02-23T11:13:01;11.00;93.20
53645;DHT22;39547;45.554;12.068;2024-02-23T11:19:05;11.10;93.30
53645;DHT22;39547;45.554;12.068;2024-02-23T11:25:07;11.00;93.20
53645;DHT22;39547;45.554;12.068;2024-02-23T11:31:16;11.00;93.30
53645;DHT22;39547;45.554;12.068;2024-02-23T11:37:20;10.90;93.30
53645;DHT22;39547;45.554;12.068;2024-02-23T11:43:33;10.90;93.50
53645;DHT22;39547;45.554;12.068;2024-02-23T11:49:38;10.90;93.70
53645;DHT22;39547;45.554;12.068;2024-02-23T11:55:39;10.90;93.80
53645;DHT22;39547;45.554;12.068;2024-02-23T12:01:41;10.90;94.00
53645;DHT22;39547;45.554;12.068;2024-02-23T12:07:43;10.90;94.00
53645;DHT22;39547;45.554;12.068;2024-02-23T12:13:44;11.00;94.20
53645;DHT22;39547;45.554;12.068;2024-02-23T12:19:47;11.00;94.00
53645;DHT22;39547;45.554;12.068;2024-02-23T12:25:58;11.00;94.20
53645;DHT22;39547;45.554;12.068;2024-02-23T12:32:05;11.00;94.40
53645;DHT22;39547;45.554;12.068;2024-02-23T12:38:06;11.00;94.60
53645;DHT22;39547;45.554;12.068;2024-02-23T12:44:08;11.00;94.40
53645;DHT22;39547;45.554;12.068;2024-02-23T12:50:10;11.00;94.40
53645;DHT22;39547;45.554;12.068;2024-02-23T12:56:13;11.00;94.50
53645;DHT22;39547;45.554;12.068;2024-02-23T13:02:17;11.10;94.90
53645;DHT22;39547;45.554;12.068;2024-02-23T13:08:18;11.10;95.00
53645;DHT22;39547;45.554;12.068;2024-02-23T13:14:20;11.10;95.00
53645;DHT22;39547;45.554;12.068;2024-02-23T13:20:23;11.10;95.10
53645;DHT22;39547;45.554;12.068;2024-02-23T13:26:24;11.00;95.10
53645;DHT22;39547;45.554;12.068;2024-02-23T13:32:27;11.10;95.10
53645;DHT22;39547;45.554;12.068;2024-02-23T13:38:29;11.10;95.20
53645;DHT22;39547;45.554;12.068;2024-02-23T13:44:31;11.20;95.30
53645;DHT22;39547;45.554;12.068;2024-02-23T13:50:33;11.20;95.40
53645;DHT22;39547;45.554;12.068;2024-02-23T13:56:34;11.20;95.40
53645;DHT22;39547;45.554;12.068;2024-02-23T14:02:36;11.20;95.30
53645;DHT22;39547;45.554;12.068;2024-02-23T14:08:39;11.20;95.20
53645;DHT22;39547;45.554;12.068;2024-02-23T14:14:40;11.20;95.20
53645;DHT22;39547;45.554;12.068;2024-02-23T14:20:42;11.20;95.30
53645;DHT22;39547;45.554;12.068;2024-02-23T14:26:43;11.20;95.30
53645;DHT22;39547;45.554;12.068;2024-02-23T14:32:45;11.20;95.30
53645;DHT22;39547;45.554;12.068;2024-02-23T14:38:46;11.20;95.40
53645;DHT22;39547;45.554;12.068;2024-02-23T14:44:48;11.20;95.30
53645;DHT22;39547;45.554;12.068;2024-02-23T14:50:51;11.20;95.40
53645;DHT22;39547;45.554;12.068;2024-02-23T14:56:53;11.20;95.40
53645;DHT22;39547;45.554;12.068;2024-02-23T15:02:55;11.20;95.40
53645;DHT22;39547;45.554;12.068;2024-02-23T15:08:59;11.20;95.30
53645;DHT22;39547;45.554;12.068;2024-02-23T15:15:01;11.20;95.40
53645;DHT22;39547;45.554;12.068;2024-02-23T15:21:02;11.20;95.40
53645;DHT22;39547;45.554;12.068;2024-02-23T15:27:04;11.20;95.40
53645;DHT22;39547;45.554;12.068;2024-02-23T15:33:06;11.10;95.30
53645;DHT22;39547;45.554;12.068;2024-02-23T15:39:07;11.10;95.30
53645;DHT22;39547;45.554;12.068;2024-02-23T15:45:10;11.00;95.10
53645;DHT22;39547;45.554;12.068;2024-02-23T15:51:11;10.90;95.10
53645;DHT22;39547;45.554;12.068;2024-02-23T15:57:13;10.80;95.20
53645;DHT22;39547;45.554;12.068;2024-02-23T16:03:14;10.80;95.30
53645;DHT22;39547;45.554;12.068;2024-02-23T16:09:18;10.80;95.20
53645;DHT22;39547;45.554;12.068;2024-02-23T16:15:19;10.70;95.40
53645;DHT22;39547;45.554;12.068;2024-02-23T16:21:22;10.70;95.40
53645;DHT22;39547;45.554;12.068;2024-02-23T16:27:23;10.70;95.40
53645;DHT22;39547;45.554;12.068;2024-02-23T16:33:25;10.70;95.50
53645;DHT22;39547;45.554;12.068;2024-02-23T16:39:27;10.70;95.60
53645;DHT22;39547;45.554;12.068;2024-02-23T16:45:29;10.70;95.60
53645;DHT22;39547;45.554;12.068;2024-02-23T16:51:30;10.70;95.50
53645;DHT22;39547;45.554;12.068;2024-02-23T16:57:32;10.70;95.40
53645;DHT22;39547;45.554;12.068;2024-02-23T17:03:34;10.70;95.40
53645;DHT22;39547;45.554;12.068;2024-02-23T17:09:36;10.70;95.50
53645;DHT22;39547;45.554;12.068;2024-02-23T17:15:38;10.70;95.70
53645;DHT22;39547;45.554;12.068;2024-02-23T17:21:40;10.70;95.70
53645;DHT22;39547;45.554;12.068;2024-02-23T17:27:42;10.60;95.70
53645;DHT22;39547;45.554;12.068;2024-02-23T17:33:45;10.60;95.60
53645;DHT22;39547;45.554;12.068;2024-02-23T17:39:46;10.60;95.60
53645;DHT22;39547;45.554;12.068;2024-02-23T17:45:48;10.50;95.50
53645;DHT22;39547;45.554;12.068;2024-02-23T17:51:49;10.50;95.20
53645;DHT22;39547;45.554;12.068;2024-02-23T17:57:51;10.40;95.10
53645;DHT22;39547;45.554;12.068;2024-02-23T18:03:53;10.30;94.90
53645;DHT22;39547;45.554;12.068;2024-02-23T18:09:56;10.30;95.10
53645;DHT22;39547;45.554;12.068;2024-02-23T18:16:00;10.20;95.00
53645;DHT22;39547;45.554;12.068;2024-02-23T18:22:04;10.20;95.00
53645;DHT22;39547;45.554;12.068;2024-02-23T18:28:06;10.20;95.20
53645;DHT22;39547;45.554;12.068;2024-02-23T18:34:07;10.20;95.30
53645;DHT22;39547;45.554;12.068;2024-02-23T18:40:10;10.20;95.40
53645;DHT22;39547;45.554;12.068;2024-02-23T18:46:12;10.20;95.30
53645;DHT22;39547;45.554;12.068;2024-02-23T18:52:14;10.20;95.30
53645;DHT22;39547;45.554;12.068;2024-02-23T18:58:16;10.20;95.30
53645;DHT22;39547;45.554;12.068;2024-02-23T19:04:18;10.20;95.30
53645;DHT22;39547;45.554;12.068;2024-02-23T19:10:19;10.20;95.40
53645;DHT22;39547;45.554;12.068;2024-02-23T19:16:21;10.20;95.40
53645;DHT22;39547;45.554;12.068;2024-02-23T19:22:22;10.20;95.30
53645;DHT22;39547;45.554;12.068;2024-02-23T19:28:24;10.20;95.30
53645;DHT22;39547;45.554;12.068;2024-02-23T19:34:26;10.20;95.20
53645;DHT22;39547;45.554;12.068;2024-02-23T19:40:27;10.20;95.20
53645;DHT22;39547;45.554;12.068;2024-02-23T19:46:29;10.10;95.20
53645;DHT22;39547;45.554;12.068;2024-02-23T19:52:30;10.10;95.20
53645;DHT22;39547;45.554;12.068;2024-02-23T19:58:32;10.10;95.30
53645;DHT22;39547;45.554;12.068;2024-02-23T20:04:33;10.10;95.40
53645;DHT22;39547;45.554;12.068;2024-02-23T20:10:35;10.10;95.30
53645;DHT22;39547;45.554;12.068;2024-02-23T20:16:36;10.10;95.30
53645;DHT22;39547;45.554;12.068;2024-02-23T20:22:39;10.00;95.30
53645;DHT22;39547;45.554;12.068;2024-02-23T20:28:41;10.00;95.20
53645;DHT22;39547;45.554;12.068;2024-02-23T20:34:42;9.90;95.10
53645;DHT22;39547;45.554;12.068;2024-02-23T20:40:44;9.80;95.00
53645;DHT22;39547;45.554;12.068;2024-02-23T20:46:48;9.70;94.90
53645;DHT22;39547;45.554;12.068;2024-02-23T20:52:50;9.70;95.00
53645;DHT22;39547;45.554;12.068;2024-02-23T20:58:52;9.70;95.00
53645;DHT22;39547;45.554;12.068;2024-02-23T21:04:53;9.70;95.10
53645;DHT22;39547;45.554;12.068;2024-02-23T21:10:56;9.70;95.20
53645;DHT22;39547;45.554;12.068;2024-02-23T21:16:57;9.70;95.20
53645;DHT22;39547;45.554;12.068;2024-02-23T21:22:59;9.70;95.10
53645;DHT22;39547;45.554;12.068;2024-02-23T21:29:02;9.70;95.00
53645;DHT22;39547;45.554;12.068;2024-02-23T21:35:04;9.70;94.80
53645;DHT22;39547;45.554;12.068;2024-02-23T21:41:05;9.60;94.70
53645;DHT22;39547;45.554;12.068;2024-02-23T21:47:07;9.60;94.80
53645;DHT22;39547;45.554;12.068;2024-02-23T21:53:08;9.50;94.70
53645;DHT22;39547;45.554;12.068;2024-02-23T21:59:11;9.50;94.80
53645;DHT22;39547;45.554;12.068;2024-02-23T22:05:12;9.60;94.90
53645;DHT22;39547;45.554;12.068;2024-02-23T22:11:14;9.60;94.80
53645;DHT22;39547;45.554;12.068;2024-02-23T22:17:15;9.60;94.80
53645;DHT22;39547;45.554;12.068;2024-02-23T22:23:17;9.50;94.60
53645;DHT22;39547;45.554;12.068;2024-02-23T22:29:18;9.50;94.50
53645;DHT22;39547;45.554;12.068;2024-02-23T22:35:21;9.50;94.60
53645;DHT22;39547;45.554;12.068;2024-02-23T22:41:26;9.50;94.80
53645;DHT22;39547;45.554;12.068;2024-02-23T22:47:27;9.50;94.90
53645;DHT22;39547;45.554;12.068;2024-02-23T22:53:28;9.50;94.90
53645;DHT22;39547;45.554;12.068;2024-02-23T22:59:30;9.50;95.00
53645;DHT22;39547;45.554;12.068;2024-02-23T23:05:32;9.50;95.00
53645;DHT22;39547;45.554;12.068;2024-02-23T23:11:34;9.50;94.80
53645;DHT22;39547;45.554;12.068;2024-02-23T23:17:36;9.40;94.90
53645;DHT22;39547;45.554;12.068;2024-02-23T23:23:38;9.40;94.80
53645;DHT22;39547;45.554;12.068;2024-02-23T23:29:39;9.40;94.80
53645;DHT22;39547;45.554;12.068;2024-02-23T23:35:41;9.30;94.80
53645;DHT22;39547;45.554;12.068;2024-02-23T23:41:42;9.30;94.80
53645;DHT22;39547;45.554;12.068;2024-02-23T23:47:45;9.20;94.50
53645;DHT22;39547;45.554;12.068;2024-02-23T23:53:47;9.20;94.60
53645;DHT22;39547;45.554;12.068;2024-02-23T23:59:55;9.10;94.40
